Aérodrome :
LOGIN :

S'inscrire | Disclaimer

   EN    FR    IT 

 










Légende :    VFR   VFR Marginal   IFR   IFR Intensif   IFR Très Intensif
Visi : 
Plafond : 
>= 8 km
>= 3000ft
5 à 8 km
1000 à 3000 ft
1500m à 5 km
500 à 1000 ft
800 à 1500m
200 à 500 ft
< 800m
< 200 ft
Symboles :   Orages  Brouillard  Fortes neiges  Fortes précipitations  Vent > 20 kt
SIGMETs :   Divers  Orages  Givrage  Turbulence  Onde Orograph.  Cendres Volcan.






- Altitude de l'aérodrome : 82 ft
- Code IATA : ALG


DAAG - Alger Houari Boumedienne

DERNIER METAR :
  • 151300Z 35008KT 320V060 CAVOK 34/16 Q1014

METARs EXPIRÉS :
  • 151230Z 34009G24KT 280V030 CAVOK 32/17 Q1014
  • 151200Z 34009KT 310V010 CAVOK 33/18 Q1014
  • 151130Z 36007KT 310V040 CAVOK 33/19 Q1015
  • 151100Z 35005KT 280V040 CAVOK 33/19 Q1015
  • 151030Z 35006KT 290V040 CAVOK 32/20 Q1015
  • 151000Z 33004KT 300V010 CAVOK 32/19 Q1014
  • 150930Z 36006KT 320V050 CAVOK 31/21 Q1015
  • 150900Z 34004KT 290V030 CAVOK 31/20 Q1014

TAF TAF DAAG
Valide du 15 à 12h jusqu'au 16 à 12h UTC


151100Z 1512/1612 34010KT CAVOK
BECMG 1518/1520 VRB02KT
BECMG 1610/1612 02012KT



MET'MAP, la Météo Aéronautique d'un coup d'oeil ! - Copyright ORBIFLY Décembre 2007 - Disclaimer

ORBIFLY MET'MAP TEAM :

Programmation & Développement : Alexandra Zaïnal
Sur une idée originale de : Baudouin d'Aumeries
Soutien technique & logistique : Manuel Goepfert
Assistance : Marc-Olivier Méhu




SOURCES & CREDITS :

   NOAA